Flight Track Log - Related Links

Times and Time Zones

All times are in EDT time to prevent confusion due to time zone crossing. See the GJS3707 flight status page for this flight to view local times or setup timezone preferences in your user account.

Time Position Orientation Groundspeed Altitude Reporting Facility
EDT Latitude Longitude Course Direction KTS MPH feet Rate Location/Type
Tue 11:16:05 AM 41.9667 -87.9833 270° West 182 209 2,400  Level Chicago TRACON
Tue 11:17:05 AM 41.9667 -88.0500 270° West 221 254 4,300 1,956 Climbing Chicago TRACON
Tue 11:18:20 AM 41.9736 -88.1597 275° West 253 291 6,800 2,190 Climbing Chicago Center
Tue 11:19:00 AM 41.9667 -88.5023 270° West  Level FlightAware Approximate
Tue 11:19:22 AM 42.0072 -88.2481 297° West 270 311 9,300  Level Chicago Center
Tue 11:20:00 AM 41.9668 -88.6528 270° West  Level FlightAware Approximate
Tue 11:20:23 AM 42.0475 -88.3347 302° West 277 319 11,700  Level Chicago Center
Tue 11:21:00 AM 41.9667 -88.8086 270° West  Level FlightAware Approximate
Tue 11:21:25 AM 42.0494 -88.4647 271° West 294 338 13,300  Level Chicago Center
Tue 11:22:27 AM 42.0458 -88.5811 268° West 311 358 15,300 1,694 Climbing Chicago Center
Tue 11:23:29 AM 42.0531 -88.7028 275° West 327 376 16,800 1,500 Climbing Chicago Center
Tue 11:24:31 AM 42.0633 -88.8294 276° West 341 392 18,400 1,500 Climbing Chicago Center
Tue 11:25:33 AM 42.0736 -88.9722 276° West 363 418 19,900 1,887 Climbing Chicago Center
Tue 11:26:35 AM 42.0867 -89.1286 276° West 359 413 22,300 1,887 Climbing Chicago Center
Tue 11:27:37 AM 42.1008 -89.2592 278° West 353 406 23,800 1,210 Climbing Chicago Center
Tue 11:28:39 AM 42.1197 -89.3933 281° West 361 415 24,800 976 Climbing Chicago Center
Tue 11:29:40 AM 42.1381 -89.5306 280° West 370 426 25,800 976 Climbing Chicago Center
Tue 11:30:42 AM 42.1603 -89.6761 282° West 389 448 26,800 968 Climbing Chicago Center
Tue 11:31:44 AM 42.1822 -89.8186 282° West 389 448 27,800 968 Climbing Chicago Center
Tue 11:32:46 AM 42.2047 -89.9556 283° West 392 451 28,800 1,065 Climbing Chicago Center
Tue 11:33:48 AM 42.2375 -90.1269 285° West 396 456 30,000 1,073 Climbing Chicago Center
Tue 11:34:49 AM 42.2667 -90.2692 286° West 397 457 31,000 976 Climbing Chicago Center
Tue 11:35:51 AM 42.2978 -90.4094 287° West 395 455 32,000 968 Climbing Chicago Center
Tue 11:36:53 AM 42.3275 -90.5492 286° West 391 450 33,000 968 Climbing Chicago Center
Tue 11:37:55 AM 42.3617 -90.6853 289° West 387 445 34,000 484 Climbing Chicago Center
Tue 11:38:57 AM 42.4092 -90.8511 291° West 396 456 34,000  Level Chicago Center
Tue 11:39:58 AM 42.4494 -90.9900 291° West 399 459 34,000  Level Chicago Center
Tue 11:41:00 AM 42.4894 -91.1272 292° West 396 456 34,000  Level Chicago Center
Tue 11:42:02 AM 42.5283 -91.2658 291° West 396 456 34,000  Level Chicago Center
Tue 11:43:04 AM 42.5689 -91.4083 291° West 405 466 34,000  Level Chicago Center
Tue 11:44:06 AM 42.6083 -91.5511 291° West 403 464 34,000  Level Chicago Center
Tue 11:45:08 AM 42.6500 -91.6981 291° West 409 471 34,000  Level Chicago Center
Tue 11:46:09 AM 42.6908 -91.8442 291° West 409 471 34,000  Level Chicago Center
Tue 11:47:11 AM 42.7392 -92.0197 291° West 413 475 34,000  Level Chicago Center
Tue 11:48:13 AM 42.7803 -92.1669 291° West 418 481 34,000  Level Chicago Center
Tue 11:49:15 AM 42.8206 -92.3156 290° West 420 483 34,000  Level Chicago Center
Tue 11:50:17 AM 42.8611 -92.4644 290° West 421 484 34,000  Level Chicago Center
Tue 11:51:19 AM 42.9019 -92.6153 290° West 425 489 34,000  Level Chicago Center
Tue 11:52:08 AM 42.9356 -92.7333 291° West 420 483 34,000  Level Minneapolis Center
Tue 11:53:10 AM 42.9836 -92.9119 290° West 420 483 34,000  Level Minneapolis Center
Tue 11:54:12 AM 43.0222 -93.0567 290° West 415 478 34,000  Level Minneapolis Center
Tue 11:55:13 AM 43.0594 -93.2056 289° West 416 479 34,000  Level Minneapolis Center
Tue 11:56:15 AM 43.0994 -93.3567 290° West 425 489 34,000  Level Minneapolis Center
Tue 11:57:17 AM 43.1247 -93.5119 283° West 420 483 34,000  Level Minneapolis Center
Tue 11:58:18 AM 43.1583 -93.6994 284° West 425 489 34,000  Level Minneapolis Center
Tue 11:59:20 AM 43.1856 -93.8550 284° West 423 487 34,000  Level Minneapolis Center
Tue 12:00:22 PM 43.2125 -94.0122 283° West 427 491 34,000  Level Minneapolis Center
Tue 12:01:24 PM 43.2389 -94.1714 283° West 432 497 34,000  Level Minneapolis Center
Tue 12:02:37 PM 43.2658 -94.3264 283° West 432 497 34,000  Level Minneapolis Center
Tue 12:03:39 PM 43.3036 -94.5489 283° West 428 493 34,000  Level Minneapolis Center
Tue 12:04:41 PM 43.3289 -94.7058 283° West 423 487 34,000  Level Minneapolis Center
Tue 12:05:43 PM 43.3556 -94.8653 283° West 426 490 34,000  Level Minneapolis Center
Tue 12:06:45 PM 43.3817 -95.0261 283° West 430 495 34,000  Level Minneapolis Center
Tue 12:07:46 PM 43.4078 -95.1894 282° West 435 501 34,000  Level Minneapolis Center
Tue 12:08:48 PM 43.4339 -95.3522 283° West 437 503 34,000  Level Minneapolis Center
Tue 12:09:50 PM 43.4589 -95.5133 282° West 432 497 34,000  Level Minneapolis Center
Tue 12:10:52 PM 43.4897 -95.7072 282° West 431 496 34,000  Level Minneapolis Center
Tue 12:11:53 PM 43.5147 -95.8683 282° West 429 494 34,000  Level Minneapolis Center
Tue 12:12:55 PM 43.5389 -96.0283 282° West 427 491 34,000  Level Minneapolis Center
Tue 12:13:57 PM 43.5631 -96.1911 282° West 430 495 34,000  Level Minneapolis Center
Tue 12:14:59 PM 43.5872 -96.3525 282° West 428 493 34,000  Level Minneapolis Center
Tue 12:16:01 PM 43.6106 -96.5133 281° West 427 491 34,000  Level Minneapolis Center
Tue 12:17:03 PM 43.6339 -96.6758 281° West 429 494 34,000  Level Minneapolis Center
Tue 12:18:04 PM 43.6556 -96.8408 280° West 434 499 34,000  Level Minneapolis Center
Tue 12:19:06 PM 43.6694 -97.0422 276° West 437 503 34,000  Level Minneapolis Center
Tue 12:21:00 PM 43.6897 -97.3450 275° West  Level FlightAware Approximate
Tue 12:22:12 PM 43.7072 -97.5383 275° West 431 496 34,000  Level Minneapolis Center
Tue 12:23:14 PM 43.7200 -97.7028 276° West 432 497 34,000  Level Minneapolis Center
Tue 12:24:15 PM 43.7311 -97.8672 275° West 430 495 34,000  Level Minneapolis Center
Tue 12:25:17 PM 43.7422 -98.0317 275° West 432 497 34,000  Level Minneapolis Center
Tue 12:26:19 PM 43.7558 -98.2300 275° West 432 497 34,000  Level Minneapolis Center
Tue 12:27:20 PM 43.7656 -98.3631 276° West 434 499 34,000  Level Minneapolis Center
Tue 12:28:23 PM 43.7783 -98.5625 275° West 436 502 34,000  Level Minneapolis Center
Tue 12:29:25 PM 43.7886 -98.7356 275° West 437 503 34,000  Level Minneapolis Center
Tue 12:30:26 PM 43.7989 -98.9042 275° West 439 505 34,000  Level Minneapolis Center
Tue 12:31:28 PM 43.8094 -99.0706 275° West 435 501 34,000  Level Minneapolis Center
Tue 12:32:30 PM 43.8189 -99.2381 275° West 435 501 34,000  Level Minneapolis Center
Tue 12:33:31 PM 43.8267 -99.3719 275° West 435 501 34,000  Level Minneapolis Center
Tue 12:34:34 PM 43.8375 -99.5708 274° West 432 497 34,000  Level Minneapolis Center
Tue 12:35:35 PM 43.8481 -99.7692 274° West 431 496 34,000  Level Minneapolis Center
Tue 12:36:37 PM 43.8578 -99.9342 275° West 430 495 34,000  Level Minneapolis Center
Tue 12:37:39 PM 43.8661 -100.0997 274° West 430 495 34,000  Level Minneapolis Center
Tue 12:38:41 PM 43.8733 -100.2636 274° West 428 493 34,000  Level Minneapolis Center
Tue 12:39:43 PM 43.8814 -100.4281 274° West 427 491 34,000  Level Minneapolis Center
Tue 12:40:45 PM 43.8897 -100.5939 274° West 429 494 34,000  Level Minneapolis Center
Tue 12:41:46 PM 43.8975 -100.7614 274° West 432 497 34,000  Level Minneapolis Center
Tue 12:42:48 PM 43.9028 -100.8928 273° West 430 495 34,000  Level Minneapolis Center
Tue 12:43:50 PM 43.9125 -101.1250 273° West 429 494 34,000  Level Minneapolis Center
Tue 12:44:51 PM 43.9181 -101.2572 273° West 429 494 34,000  Level Minneapolis Center
Tue 12:45:54 PM 43.9250 -101.4525 273° West 427 491 34,000  Level Minneapolis Center
Tue 12:46:56 PM 43.9292 -101.6156 272° West 424 488 34,000  Level Minneapolis Center
Tue 12:47:43 PM 43.9367 -101.7475 275° West 423 487 34,000  Level Denver Center
Tue 12:48:45 PM 43.9383 -101.9078 271° West 418 481 34,000  Level Denver Center
Tue 12:49:48 PM 43.9439 -102.0719 273° West 422 486 34,000  Level Denver Center
Tue 12:50:50 PM 43.9497 -102.2375 273° West 427 491 34,000  Level Denver Center
Tue 12:51:52 PM 43.9572 -102.4397 273° West 434 499 34,000  Level Denver Center
Tue 12:52:54 PM 43.9642 -102.6086 273° West 436 502 34,000  Level Denver Center
Tue 12:53:56 PM 43.9706 -102.7800 273° West 442 509 34,000  Level Denver Center
Tue 12:54:58 PM 43.9753 -102.9564 272° West 439 505 34,000  Level Denver Center
Tue 12:56:00 PM 43.9783 -103.1178 272° West 439 505 34,000  Level Denver Center
Tue 12:57:02 PM 43.9831 -103.3083 272° West 441 507 34,000  Level Denver Center
Tue 12:58:04 PM 43.9844 -103.4708 271° West 441 507 34,000  Level Denver Center
Tue 12:59:05 PM 43.9878 -103.6350 272° West 444 511 34,000  Level Denver Center
Tue 01:00:08 PM 43.9906 -103.8261 271° West 445 512 34,000  Level Denver Center
Tue 01:01:10 PM 43.9939 -104.0203 271° West 452 520 34,000  Level Denver Center
Tue 01:02:12 PM 43.9964 -104.1844 271° West 448 516 34,000  Level Denver Center
Tue 01:03:14 PM 43.9981 -104.3792 271° West 452 520 34,000  Level Denver Center
Tue 01:04:16 PM 43.9997 -104.5453 271° West 452 520 34,000  Level Denver Center
Tue 01:05:18 PM 44.0014 -104.7389 271° West 451 519 34,000  Level Denver Center
Tue 01:06:20 PM 44.0022 -104.9078 270° West 456 525 34,000  Level Denver Center
Tue 01:07:34 PM 44.0036 -105.0994 271° West 449 517 34,000  Level Denver Center
Tue 01:08:37 PM 44.0036 -105.3222 270° West 452 520 34,000  Level Denver Center
Tue 01:09:39 PM 44.0050 -105.4864 271° West 448 516 34,000  Level Denver Center
Tue 01:10:41 PM 44.0044 -105.6508 270° West 447 514 34,000  Level Denver Center
Tue 01:11:43 PM 44.0039 -105.8422 270° West 446 513 34,000  Level Denver Center
Tue 01:12:45 PM 44.0044 -106.0053 270° West 444 511 34,000  Level Denver Center
Tue 01:13:47 PM 44.0017 -106.2014 269° West 451 519 34,000  Level Denver Center
Tue 01:14:06 PM 44.0000 -106.2653 268° West 449 517 34,000  Level Salt Lake Center
Tue 01:15:07 PM 43.9981 -106.4311 269° West 449 517 34,000  Level Salt Lake Center
Tue 01:15:50 PM 44.0039 -106.5614 274° West 455 524 34,000  Level Denver Center
Tue 01:16:52 PM 44.0106 -106.7269 273° West 453 521 34,000  Level Denver Center
Tue 01:17:11 PM 44.0122 -106.7911 272° West 451 519 34,000  Level Salt Lake Center
Tue 01:17:54 PM 44.0169 -106.9044 273° West 450 518 34,000  Level Denver Center
Tue 01:18:56 PM 44.0244 -107.0953 273° West 447 514 34,000  Level Denver Center
Tue 01:19:14 PM 44.0264 -107.1522 273° West 452 520 34,000  Level Salt Lake Center
Tue 01:20:16 PM 44.0308 -107.3161 272° West 444 511 34,000  Level Salt Lake Center
Tue 01:21:17 PM 44.0367 -107.4808 273° West 444 511 34,000  Level Salt Lake Center
Tue 01:22:19 PM 44.0425 -107.6736 272° West 444 511 34,000  Level Salt Lake Center
Tue 01:23:21 PM 44.0472 -107.8381 272° West 444 511 34,000  Level Salt Lake Center
Tue 01:24:22 PM 44.0531 -108.0303 272° West 445 512 34,000  Level Salt Lake Center
Tue 01:25:24 PM 44.0575 -108.1942 272° West 442 509 34,000  Level Salt Lake Center
Tue 01:26:26 PM 44.0611 -108.3583 272° West 443 510 34,000  Level Salt Lake Center
Tue 01:27:27 PM 44.0661 -108.5481 272° West 440 506 34,000  Level Salt Lake Center
Tue 01:28:29 PM 44.0689 -108.7083 271° West 434 499 34,000  Level Salt Lake Center
Tue 01:29:32 PM 44.0722 -108.8922 272° West 426 490 34,000  Level Salt Lake Center
Tue 01:30:32 PM 44.0747 -109.0497 271° West 425 489 34,000  Level Salt Lake Center
Tue 01:31:34 PM 44.0778 -109.2047 272° West 419 482 34,000  Level Salt Lake Center
Tue 01:32:36 PM 44.0800 -109.3847 271° West 418 481 34,000  Level Salt Lake Center
Tue 01:33:37 PM 44.0844 -109.5536 272° West 414 476 34,000  Level Salt Lake Center
Tue 01:34:39 PM 44.0856 -109.7086 271° West 419 482 34,000  Level Salt Lake Center
Tue 01:35:41 PM 44.0886 -109.8883 271° West 416 479 34,000  Level Salt Lake Center
Tue 01:36:42 PM 44.0903 -110.0417 271° West 414 476 34,000  Level Salt Lake Center
Tue 01:37:44 PM 44.0911 -110.1956 270° West 415 478 34,000  Level Salt Lake Center
Tue 01:38:46 PM 44.0914 -110.3767 270° West 419 482 34,000  Level Salt Lake Center
Tue 01:39:48 PM 44.0936 -110.5308 271° West 416 479 34,000  Level Salt Lake Center
Tue 01:40:50 PM 44.0933 -110.7097 270° West 416 479 34,000  Level Salt Lake Center
Tue 01:41:51 PM 44.0939 -110.8636 270° West 415 478 34,000  Level Salt Lake Center
Tue 01:42:53 PM 44.0936 -111.0422 270° West 413 475 34,000  Level Salt Lake Center
Tue 01:43:55 PM 44.0939 -111.1939 270° West 409 471 34,000  Level Salt Lake Center
Tue 01:44:57 PM 44.0939 -111.3450 270° West 407 468 34,000  Level Salt Lake Center
Tue 01:45:59 PM 44.0936 -111.5214 270° West 406 467 34,000  Level Salt Lake Center
Tue 01:47:00 PM 44.0928 -111.6722 270° West 405 466 34,000  Level Salt Lake Center
Tue 01:48:02 PM 44.0917 -111.8472 270° West 403 464 34,000  Level Salt Lake Center
Tue 01:49:04 PM 44.0911 -111.9989 270° West 407 468 34,000  Level Salt Lake Center
Tue 01:50:06 PM 44.0889 -112.1475 269° West 401 461 34,000  Level Salt Lake Center
Tue 01:51:08 PM 44.0747 -112.3233 264° West 412 474 34,000  Level Salt Lake Center
Tue 01:52:10 PM 44.0575 -112.4744 261° West 413 475 34,000  Level Salt Lake Center
Tue 01:53:12 PM 44.0394 -112.6508 262° West 413 475 34,000  Level Salt Lake Center
Tue 01:54:14 PM 44.0208 -112.8008 260° West 412 474 34,000  Level Salt Lake Center
Tue 01:55:16 PM 43.9986 -112.9747 260° West 410 472 34,000  Level Salt Lake Center
Tue 01:56:18 PM 43.9819 -113.1239 261° West 408 470 34,000  Level Salt Lake Center
Tue 01:57:20 PM 43.9622 -113.2969 261° West 407 468 34,000  Level Salt Lake Center
Tue 01:58:22 PM 43.9436 -113.4431 260° West 403 464 34,000  Level Salt Lake Center
Tue 01:59:24 PM 43.9217 -113.6156 260° West 409 471 34,000  Level Salt Lake Center
Tue 02:00:26 PM 43.9028 -113.7608 260° West 399 459 34,000  Level Salt Lake Center
Tue 02:01:28 PM 43.8814 -113.9269 260° West 400 460 34,000 -387 Level Salt Lake Center
Tue 02:02:30 PM 43.8628 -114.0736 260° West 405 466 33,200 -1,210 Descending Salt Lake Center
Tue 02:03:32 PM 43.8433 -114.2228 260° West 412 474 31,500 -1,887 Descending Salt Lake Center
Tue 02:04:34 PM 43.8203 -114.3975 260° West 410 472 29,300 -2,226 Descending Salt Lake Center
Tue 02:05:36 PM 43.8000 -114.5461 259° West 410 472 26,900 -2,516 Descending Salt Lake Center
Tue 02:06:38 PM 43.7781 -114.7194 260° West 410 472 24,100 -2,516 Descending Salt Lake Center
Tue 02:07:40 PM 43.7583 -114.8622 259° West 396 456 21,700 -2,419 Descending Salt Lake Center
Tue 02:08:42 PM 43.7367 -115.0169 259° West 368 423 19,100 -2,293 Descending Salt Lake Center
Tue 02:09:43 PM 43.7206 -115.1444 260° West 351 404 17,000 -2,098 Descending Salt Lake Center
Tue 02:10:45 PM 43.6989 -115.2897 258° West 345 397 14,800 -1,887 Descending Salt Lake Center
Tue 02:11:47 PM 43.6811 -115.4189 259° West 338 389 13,100 -871 Descending Salt Lake Center
Tue 02:12:49 PM 43.6625 -115.5506 259° West 335 386 13,000 -581 Descending Salt Lake Center
Tue 02:14:00 PM 43.6305 -115.7340 257° West  Level FlightAware Approximate
Tue 02:14:53 PM 43.6272 -115.8000 257° West 326 375 11,300  Level Salt Lake Center
Tue 02:15:55 PM 43.6103 -115.9139 258° West 292 336 9,800 -1,258 Descending Salt Lake Center
Tue 02:16:57 PM 43.5931 -116.0256 258° West 286 329 8,700 -871 Descending Salt Lake Center
Tue 02:17:59 PM 43.6125 -116.1378 283° West 303 349 8,000 -629 Descending Salt Lake Center
Tue 02:19:01 PM 43.6492 -116.2300 299° West 270 311 7,400 -968 Descending Salt Lake Center
Tue 02:20:03 PM 43.6828 -116.3136 299° West 245 282 6,000 -1,161 Descending Salt Lake Center
Tue 02:21:05 PM 43.7122 -116.3903 298° West 237 273 5,000 -484 Descending Salt Lake Center
Tue 02:22:07 PM 43.6922 -116.4417 242° Southwest 194 223 5,000  Level Salt Lake Center
Tue 02:23:09 PM 43.6475 -116.4300 169° South 175 201 5,000  Level Salt Lake Center

Login

Don't have an account? Register now (free) for customized features, flight alerts, and more!